createdAt,value
2018-06-24T00:01:20.510Z,101530.94
2018-06-24T00:03:50.375Z,101531.02
2018-06-24T00:06:20.304Z,101527.92
2018-06-24T00:08:50.033Z,101523.70
2018-06-24T00:11:19.956Z,101520.82
2018-06-24T00:13:49.870Z,101526.83
2018-06-24T00:16:19.702Z,101532.70
2018-06-24T00:18:49.858Z,101519.65
2018-06-24T00:21:19.644Z,101522.79
2018-06-24T00:23:49.691Z,101516.52
2018-06-24T00:26:19.589Z,101512.28
2018-06-24T00:28:49.437Z,101507.78
2018-06-24T00:31:19.300Z,101508.45
2018-06-24T00:36:50.805Z,101511.58
2018-06-24T00:39:20.419Z,101507.33
2018-06-24T00:41:50.062Z,101502.88
2018-06-24T00:44:19.699Z,101502.20
2018-06-24T00:46:49.646Z,101495.85
2018-06-24T00:49:19.522Z,101495.45
2018-06-24T00:51:49.276Z,101496.91
2018-06-24T00:54:19.198Z,101488.00
2018-06-24T00:56:49.041Z,101488.50
2018-06-24T00:59:35.299Z,101477.08
2018-06-24T01:02:05.590Z,101470.94
2018-06-24T01:04:35.402Z,101462.38
2018-06-24T01:07:05.328Z,101459.22
2018-06-24T01:09:35.142Z,101455.58
2018-06-24T01:12:05.027Z,101452.00
2018-06-24T01:14:34.625Z,101446.40
2018-06-24T01:17:04.333Z,101448.58
2018-06-24T01:19:34.090Z,101453.93
2018-06-24T01:22:04.451Z,101446.94
2018-06-24T01:24:34.330Z,101443.20
2018-06-24T01:27:04.191Z,101446.61
2018-06-24T01:29:33.904Z,101441.88
2018-06-24T01:32:03.776Z,101446.55
2018-06-24T01:34:33.418Z,101443.58
2018-06-24T01:37:22.250Z,101444.39
2018-06-24T01:39:52.143Z,101443.59
2018-06-24T01:42:21.921Z,101440.37
2018-06-24T01:44:51.771Z,101434.25
2018-06-24T01:47:21.582Z,101438.44
2018-06-24T01:49:51.489Z,101435.96
2018-06-24T01:52:21.270Z,101429.02
2018-06-24T01:54:51.263Z,101430.13
2018-06-24T01:57:21.038Z,101436.22
2018-06-24T01:59:50.787Z,101430.42
2018-06-24T02:02:20.667Z,101429.27
2018-06-24T02:04:50.165Z,101431.30
2018-06-24T02:07:19.906Z,101439.23
2018-06-24T02:09:49.548Z,101439.67
2018-06-24T02:12:19.202Z,101439.97
2018-06-24T02:14:49.856Z,101434.42
2018-06-24T02:17:19.871Z,101432.86
2018-06-24T02:19:49.586Z,101435.09
2018-06-24T02:22:19.191Z,101435.84
2018-06-24T02:24:48.850Z,101433.77
2018-06-24T02:27:18.554Z,101437.85
2018-06-24T02:29:48.531Z,101435.55
2018-06-24T02:32:18.352Z,101437.44
2018-06-24T02:34:48.230Z,101434.80
2018-06-24T02:37:17.906Z,101442.34
2018-06-24T02:39:48.055Z,101438.59
2018-06-24T02:42:18.019Z,101439.98
2018-06-24T02:44:47.768Z,101440.55
2018-06-24T02:47:17.458Z,101433.70
2018-06-24T02:49:47.138Z,101435.29
2018-06-24T02:52:16.827Z,101438.58
2018-06-24T02:54:46.482Z,101433.30
2018-06-24T02:57:15.865Z,101436.60
2018-06-24T02:59:45.626Z,101436.81
2018-06-24T03:02:15.362Z,101433.11
2018-06-24T03:04:45.530Z,101431.57
2018-06-24T03:07:15.423Z,101430.46
2018-06-24T03:09:45.499Z,101433.51
2018-06-24T03:12:15.189Z,101431.81
2018-06-24T03:14:45.162Z,101433.50
2018-06-24T03:17:15.089Z,101419.59
2018-06-24T03:19:44.867Z,101422.34
2018-06-24T03:22:14.747Z,101428.98
2018-06-24T03:24:44.544Z,101428.41
2018-06-24T03:27:14.477Z,101426.58
2018-06-24T03:29:44.319Z,101424.86
2018-06-24T03:32:14.153Z,101428.95
2018-06-24T03:34:43.998Z,101428.27
2018-06-24T03:37:13.845Z,101425.66
2018-06-24T03:39:43.689Z,101424.77
2018-06-24T03:42:13.506Z,101425.54
2018-06-24T03:44:43.664Z,101419.88
2018-06-24T03:47:13.285Z,101427.38
2018-06-24T03:49:43.045Z,101423.19
2018-06-24T03:52:13.492Z,101420.57
2018-06-24T03:54:43.246Z,101425.92
2018-06-24T03:57:12.888Z,101424.49
2018-06-24T03:59:42.527Z,101424.29
2018-06-24T04:02:12.238Z,101422.14
2018-06-24T04:04:42.528Z,101423.17
2018-06-24T04:07:12.314Z,101430.65
2018-06-24T04:09:41.983Z,101429.19
2018-06-24T04:12:11.869Z,101425.08
2018-06-24T04:14:46.554Z,101429.47
2018-06-24T04:17:16.265Z,101427.77
2018-06-24T04:19:46.186Z,101434.70
2018-06-24T04:22:16.179Z,101432.20
2018-06-24T04:24:46.599Z,101432.58
2018-06-24T04:27:16.501Z,101428.38
2018-06-24T04:29:46.410Z,101426.17
2018-06-24T04:32:16.390Z,101423.77
2018-06-24T04:34:46.409Z,101428.15
2018-06-24T04:37:16.256Z,101433.91
2018-06-24T04:39:46.023Z,101431.85
2018-06-24T04:42:15.908Z,101430.20
2018-06-24T04:44:45.773Z,101432.75
2018-06-24T04:47:15.583Z,101434.44
2018-06-24T04:49:45.535Z,101436.55
2018-06-24T04:52:15.338Z,101440.44
2018-06-24T04:54:45.121Z,101441.16
2018-06-24T04:57:14.817Z,101442.67
2018-06-24T04:59:44.933Z,101451.64
2018-06-24T05:02:14.639Z,101443.44
2018-06-24T05:04:44.670Z,101447.42
2018-06-24T05:07:14.306Z,101450.30
2018-06-24T05:09:44.507Z,101451.91
2018-06-24T05:12:14.151Z,101456.69
2018-06-24T05:14:43.910Z,101449.02
2018-06-24T05:17:13.678Z,101461.23
2018-06-24T05:19:43.460Z,101467.72
2018-06-24T05:22:13.510Z,101473.80
2018-06-24T05:24:43.278Z,101474.25
2018-06-24T05:27:13.006Z,101467.78
2018-06-24T05:29:43.118Z,101466.80
2018-06-24T05:32:12.855Z,101462.82
2018-06-24T05:34:42.659Z,101465.75
2018-06-24T05:37:12.765Z,101471.73
2018-06-24T05:39:42.542Z,101461.83
2018-06-24T05:42:12.471Z,101456.70
2018-06-24T05:44:42.220Z,101464.53
2018-06-24T05:47:12.194Z,101465.83
2018-06-24T05:49:41.943Z,101468.80
2018-06-24T05:52:11.810Z,101466.59
2018-06-24T05:54:41.586Z,101471.03
2018-06-24T05:57:11.392Z,101461.86
2018-06-24T05:59:41.077Z,101462.55
2018-06-24T06:02:11.138Z,101465.25
2018-06-24T06:04:41.106Z,101461.47
2018-06-24T06:07:11.085Z,101465.41
2018-06-24T06:09:41.159Z,101462.33
2018-06-24T06:12:11.082Z,101460.55
2018-06-24T06:14:40.970Z,101459.89
2018-06-24T06:17:10.794Z,101469.72
2018-06-24T06:19:40.634Z,101461.86
2018-06-24T06:22:10.486Z,101460.63
2018-06-24T06:24:40.322Z,101464.60
2018-06-24T06:27:10.026Z,101466.90
2018-06-24T06:29:39.814Z,101467.56
2018-06-24T06:32:09.450Z,101467.98
2018-06-24T06:34:39.727Z,101472.34
2018-06-24T06:37:09.449Z,101483.33
2018-06-24T06:39:39.094Z,101485.23
2018-06-24T06:42:09.213Z,101481.84
2018-06-24T06:44:39.490Z,101481.95
2018-06-24T06:47:09.402Z,101488.02
2018-06-24T06:49:39.258Z,101487.02
2018-06-24T06:52:09.025Z,101484.02
2018-06-24T06:54:38.429Z,101486.17
2018-06-24T06:57:09.794Z,101488.33
2018-06-24T06:59:40.502Z,101486.86
2018-06-24T07:02:10.596Z,101492.14
2018-06-24T07:04:40.374Z,101494.16
2018-06-24T07:07:10.264Z,101494.68
2018-06-24T07:09:39.939Z,101493.70
2018-06-24T07:12:09.840Z,101496.23
2018-06-24T07:14:39.746Z,101498.28
2018-06-24T07:17:09.568Z,101494.20
2018-06-24T07:19:39.375Z,101495.99
2018-06-24T07:22:09.428Z,101491.03
2018-06-24T07:24:39.227Z,101496.49
2018-06-24T07:27:09.134Z,101500.34
2018-06-24T07:29:38.387Z,101497.04
2018-06-24T07:32:07.986Z,101499.97
2018-06-24T07:34:37.708Z,101497.42
2018-06-24T07:37:07.426Z,101494.13
2018-06-24T07:39:37.111Z,101497.30
2018-06-24T07:42:06.777Z,101507.33
2018-06-24T07:44:36.501Z,101507.58
2018-06-24T07:47:06.173Z,101503.86
2018-06-24T07:49:36.267Z,101499.78
2018-06-24T07:52:05.955Z,101502.07
2018-06-24T07:54:36.349Z,101500.09
2018-06-24T07:57:06.425Z,101499.66
2018-06-24T07:59:36.405Z,101496.27
2018-06-24T08:02:06.204Z,101498.30
2018-06-24T08:04:36.035Z,101493.55
2018-06-24T08:07:06.086Z,101499.02
2018-06-24T08:09:36.022Z,101490.08
2018-06-24T08:12:05.806Z,101489.25
2018-06-24T08:14:35.527Z,101487.13
2018-06-24T08:17:05.350Z,101486.67
2018-06-24T08:19:35.303Z,101491.77
2018-06-24T08:22:05.155Z,101485.70
2018-06-24T08:24:35.091Z,101488.95
2018-06-24T08:27:04.961Z,101492.37
2018-06-24T08:29:34.741Z,101484.74
2018-06-24T08:32:04.854Z,101487.66
2018-06-24T08:34:34.613Z,101485.13
2018-06-24T08:37:04.173Z,101489.02
2018-06-24T08:39:34.026Z,101485.09
2018-06-24T08:42:04.063Z,101483.09
2018-06-24T08:44:34.056Z,101483.77
2018-06-24T08:47:04.063Z,101491.13
2018-06-24T08:49:33.969Z,101489.20
2018-06-24T08:52:03.780Z,101487.80
2018-06-24T08:54:33.810Z,101492.90
2018-06-24T08:57:03.699Z,101497.31
2018-06-24T08:59:33.508Z,101495.21
2018-06-24T09:02:03.511Z,101502.95
2018-06-24T09:04:33.455Z,101498.54
2018-06-24T09:07:03.439Z,101505.02
2018-06-24T09:09:33.476Z,101505.78
2018-06-24T09:12:03.499Z,101503.47
2018-06-24T09:14:33.096Z,101504.19
2018-06-24T09:17:03.290Z,101499.39
2018-06-24T09:19:32.958Z,101507.05
2018-06-24T09:22:03.174Z,101503.94
2018-06-24T09:24:32.930Z,101505.33
2018-06-24T09:27:02.666Z,101502.03
2018-06-24T09:29:32.293Z,101496.17
2018-06-24T09:32:02.014Z,101496.99
2018-06-24T09:34:31.870Z,101499.70
2018-06-24T09:37:01.553Z,101494.95
2018-06-24T09:39:31.646Z,101487.86
2018-06-24T09:42:01.342Z,101487.74
2018-06-24T09:44:31.037Z,101488.67
2018-06-24T09:47:01.082Z,101495.38
2018-06-24T09:49:31.169Z,101489.55
2018-06-24T09:52:00.951Z,101493.98
2018-06-24T09:54:30.765Z,101495.89
2018-06-24T09:57:00.587Z,101496.23
2018-06-24T09:59:30.378Z,101495.02
2018-06-24T10:02:00.091Z,101500.78
2018-06-24T10:04:29.877Z,101488.32
2018-06-24T10:06:59.612Z,101481.03
2018-06-24T10:09:29.221Z,101487.30
2018-06-24T10:11:59.244Z,101481.63
2018-06-24T10:14:28.958Z,101486.04
2018-06-24T10:16:58.740Z,101487.22
2018-06-24T10:19:29.334Z,101484.11
2018-06-24T10:21:58.696Z,101485.19
2018-06-24T10:24:28.341Z,101488.93
2018-06-24T10:26:58.024Z,101487.97
2018-06-24T10:29:27.648Z,101484.83
2018-06-24T10:31:57.232Z,101476.23
2018-06-24T10:34:27.020Z,101474.15
2018-06-24T10:36:56.694Z,101474.41
2018-06-24T10:39:26.550Z,101476.57
2018-06-24T10:41:56.221Z,101483.21
2018-06-24T10:44:25.867Z,101487.22
2018-06-24T10:46:55.599Z,101485.17
2018-06-24T10:49:25.459Z,101478.72
2018-06-24T10:51:55.226Z,101483.94
2018-06-24T10:54:25.624Z,101475.58
2018-06-24T10:56:55.437Z,101471.27
2018-06-24T10:59:25.179Z,101480.86
2018-06-24T11:01:55.336Z,101478.77
2018-06-24T11:04:25.022Z,101474.78
2018-06-24T11:06:54.735Z,101466.47
2018-06-24T11:09:24.627Z,101471.15
2018-06-24T11:11:54.324Z,101464.61
2018-06-24T11:14:24.086Z,101461.84
2018-06-24T11:16:53.826Z,101463.93
2018-06-24T11:19:23.569Z,101462.98
2018-06-24T11:21:53.479Z,101460.63
2018-06-24T11:24:23.334Z,101457.34
2018-06-24T11:26:53.150Z,101461.48
2018-06-24T11:29:23.193Z,101464.22
2018-06-24T11:31:53.061Z,101460.15
2018-06-24T11:34:22.849Z,101455.18
2018-06-24T11:36:52.799Z,101459.00
2018-06-24T11:39:22.622Z,101458.80
2018-06-24T11:41:52.310Z,101455.27
2018-06-24T11:44:22.215Z,101459.32
2018-06-24T11:46:51.998Z,101453.93
2018-06-24T11:49:21.665Z,101453.76
2018-06-24T11:51:51.698Z,101462.31
2018-06-24T11:54:21.402Z,101461.73
2018-06-24T11:56:51.407Z,101459.40
2018-06-24T11:59:21.150Z,101468.30
2018-06-24T12:01:50.915Z,101464.59
2018-06-24T12:04:20.668Z,101463.98
2018-06-24T12:06:50.223Z,101457.66
2018-06-24T12:09:19.829Z,101463.19
2018-06-24T12:11:49.774Z,101468.95
2018-06-24T12:14:19.584Z,101469.03
2018-06-24T12:16:49.360Z,101458.09
2018-06-24T12:19:19.410Z,101461.97
2018-06-24T12:21:49.200Z,101460.52
2018-06-24T12:24:18.849Z,101458.13
2018-06-24T12:26:48.598Z,101451.84
2018-06-24T12:29:18.297Z,101456.87
2018-06-24T12:31:47.982Z,101453.59
2018-06-24T12:34:17.685Z,101449.63
2018-06-24T12:36:47.331Z,101443.40
2018-06-24T12:39:18.409Z,101441.88
2018-06-24T12:41:48.623Z,101445.48
2018-06-24T12:44:18.506Z,101447.42
2018-06-24T12:46:48.145Z,101445.80
2018-06-24T12:49:17.870Z,101447.52
2018-06-24T12:51:47.522Z,101447.59
2018-06-24T12:54:17.505Z,101442.33
2018-06-24T12:56:47.249Z,101441.38
2018-06-24T12:59:17.318Z,101448.97
2018-06-24T13:01:46.708Z,101441.70
2018-06-24T13:04:16.397Z,101439.45
2018-06-24T13:06:46.102Z,101445.19
2018-06-24T13:09:15.798Z,101446.64
2018-06-24T13:11:45.445Z,101444.06
2018-06-24T13:14:15.130Z,101448.96
2018-06-24T13:16:44.722Z,101448.29
2018-06-24T13:19:14.382Z,101438.66
2018-06-24T13:21:44.026Z,101436.03
2018-06-24T13:24:13.813Z,101437.58
2018-06-24T13:26:43.397Z,101439.28
2018-06-24T13:29:13.034Z,101435.64
2018-06-24T13:31:42.763Z,101438.91
2018-06-24T13:34:12.559Z,101439.80
2018-06-24T13:36:42.258Z,101442.91
2018-06-24T13:39:12.441Z,101437.37
2018-06-24T13:41:42.097Z,101431.11
2018-06-24T13:44:11.777Z,101433.49
2018-06-24T13:46:41.483Z,101437.53
2018-06-24T13:49:11.374Z,101438.22
2018-06-24T13:51:41.131Z,101433.37
2018-06-24T13:54:11.284Z,101429.89
2018-06-24T13:56:41.087Z,101431.27
2018-06-24T13:59:10.815Z,101437.90
2018-06-24T14:01:40.593Z,101431.27
2018-06-24T14:04:10.255Z,101433.13
2018-06-24T14:06:39.890Z,101436.00
2018-06-24T14:09:12.446Z,101434.15
2018-06-24T14:11:42.100Z,101434.68
2018-06-24T14:14:11.726Z,101435.95
2018-06-24T14:16:41.486Z,101434.00
2018-06-24T14:19:11.384Z,101436.77
2018-06-24T14:21:41.082Z,101429.68
2018-06-24T14:24:10.733Z,101427.79
2018-06-24T14:26:40.433Z,101431.69
2018-06-24T14:29:10.090Z,101432.91
2018-06-24T14:31:40.782Z,101433.31
2018-06-24T14:34:10.615Z,101429.95
2018-06-24T14:36:40.278Z,101432.23
2018-06-24T14:39:12.049Z,101436.33
2018-06-24T14:41:41.805Z,101434.74
2018-06-24T14:44:11.664Z,101438.80
2018-06-24T14:46:41.324Z,101439.12
2018-06-24T14:49:11.510Z,101433.05
2018-06-24T14:51:40.933Z,101436.91
2018-06-24T14:54:10.639Z,101436.92
2018-06-24T14:56:40.680Z,101438.61
2018-06-24T14:59:10.385Z,101435.60
2018-06-24T15:01:40.202Z,101446.24
2018-06-24T15:04:10.050Z,101443.95
2018-06-24T15:06:39.861Z,101437.16
2018-06-24T15:09:11.890Z,101440.58
2018-06-24T15:11:41.714Z,101440.80
2018-06-24T15:14:11.502Z,101441.34
2018-06-24T15:16:41.145Z,101436.97
2018-06-24T15:19:10.787Z,101443.11
2018-06-24T15:21:40.581Z,101439.45
2018-06-24T15:24:10.445Z,101433.91
2018-06-24T15:26:40.210Z,101442.16
2018-06-24T15:29:10.245Z,101437.92
2018-06-24T15:31:40.062Z,101443.53
2018-06-24T15:34:09.937Z,101436.82
2018-06-24T15:36:39.750Z,101438.11
2018-06-24T15:39:11.738Z,101438.94
2018-06-24T15:41:42.083Z,101439.18
2018-06-24T15:44:11.806Z,101442.43
2018-06-24T15:46:41.430Z,101446.59
2018-06-24T15:49:11.563Z,101443.63
2018-06-24T15:51:57.551Z,101444.48
2018-06-24T15:54:45.378Z,101443.52
2018-06-24T15:57:15.036Z,101444.75
2018-06-24T15:59:44.677Z,101449.38
2018-06-24T16:02:14.296Z,101449.71
2018-06-24T16:04:43.945Z,101450.65
2018-06-24T16:07:13.717Z,101446.97
2018-06-24T16:09:43.446Z,101445.34
2018-06-24T16:12:15.155Z,101452.28
2018-06-24T16:14:45.435Z,101438.27
2018-06-24T16:17:15.367Z,101438.05
2018-06-24T16:19:45.266Z,101435.95
2018-06-24T16:22:15.167Z,101433.18
2018-06-24T16:24:47.062Z,101433.94
2018-06-24T16:27:16.958Z,101435.66
2018-06-24T16:29:46.896Z,101431.42
2018-06-24T16:32:16.867Z,101437.23
2018-06-24T16:34:47.937Z,101433.08
2018-06-24T16:37:18.002Z,101436.33
2018-06-24T16:39:48.114Z,101434.86
2018-06-24T16:42:23.463Z,101433.30
2018-06-24T16:44:53.482Z,101431.09
2018-06-24T16:47:23.186Z,101430.67
2018-06-24T16:49:53.007Z,101417.63
2018-06-24T16:52:22.650Z,101417.28
2018-06-24T16:54:52.370Z,101421.77
2018-06-24T16:57:22.316Z,101421.73
2018-06-24T16:59:52.108Z,101417.72
2018-06-24T17:02:22.223Z,101420.80
2018-06-24T17:04:57.532Z,101414.33
2018-06-24T17:07:27.354Z,101415.30
2018-06-24T17:09:57.161Z,101417.50
2018-06-24T17:12:26.844Z,101428.83
2018-06-24T17:18:03.092Z,101421.17
2018-06-24T17:20:43.607Z,101421.58
2018-06-24T17:23:13.435Z,101416.09
2018-06-24T17:25:44.150Z,101417.88
2018-06-24T17:28:13.771Z,101416.70
2018-06-24T17:30:44.104Z,101414.55
2018-06-24T17:33:13.950Z,101416.16
2018-06-24T17:35:43.738Z,101414.41
2018-06-24T17:38:13.481Z,101417.88
2018-06-24T17:40:47.114Z,101418.00
2018-06-24T17:43:17.391Z,101422.68
2018-06-24T17:45:47.557Z,101427.21
2018-06-24T17:48:17.215Z,101418.99
2018-06-24T17:50:47.139Z,101421.09
2018-06-24T17:53:22.813Z,101419.60
2018-06-24T17:55:52.726Z,101412.19
2018-06-24T17:58:22.885Z,101414.58
2018-06-24T18:00:52.681Z,101417.67
2018-06-24T18:03:22.333Z,101413.83
2018-06-24T18:05:51.993Z,101411.78
2018-06-24T18:08:21.652Z,101415.02
2018-06-24T18:10:51.242Z,101416.85
2018-06-24T18:13:20.869Z,101410.69
2018-06-24T18:15:50.500Z,101408.34
2018-06-24T18:18:20.581Z,101408.70
2018-06-24T18:20:50.182Z,101405.19
2018-06-24T18:23:19.863Z,101403.97
2018-06-24T18:25:49.538Z,101403.27
2018-06-24T18:28:19.225Z,101401.33
2018-06-24T18:30:48.998Z,101395.74
2018-06-24T18:33:18.923Z,101397.20
2018-06-24T18:35:48.751Z,101396.00
2018-06-24T18:38:18.529Z,101391.44
2018-06-24T18:40:48.202Z,101390.48
2018-06-24T18:43:18.387Z,101381.11
2018-06-24T18:45:48.070Z,101381.23
2018-06-24T18:48:17.732Z,101384.41
2018-06-24T18:50:47.866Z,101385.98
2018-06-24T18:53:17.737Z,101389.69
2018-06-24T18:55:47.475Z,101385.87
2018-06-24T18:58:17.194Z,101389.34
2018-06-24T19:00:47.321Z,101391.15
2018-06-24T19:03:19.102Z,101386.79
2018-06-24T19:05:49.834Z,101389.98
2018-06-24T19:08:19.125Z,101386.92
2018-06-24T19:10:49.017Z,101384.09
2018-06-24T19:13:18.645Z,101386.36
2018-06-24T19:15:48.304Z,101388.75
2018-06-24T19:18:18.154Z,101388.98
2018-06-24T19:20:48.132Z,101381.84
2018-06-24T19:23:18.031Z,101384.96
2018-06-24T19:25:47.764Z,101388.19
2018-06-24T19:28:17.566Z,101387.59
2018-06-24T19:30:47.327Z,101395.48
2018-06-24T19:33:35.831Z,101396.36
2018-06-24T19:36:10.941Z,101401.09
2018-06-24T19:38:42.646Z,101399.98
2018-06-24T19:41:12.594Z,101398.95
2018-06-24T19:43:58.870Z,101402.55
2018-06-24T19:46:28.693Z,101404.95
2018-06-24T19:48:58.586Z,101411.19
2018-06-24T19:54:46.892Z,101404.95
2018-06-24T20:00:18.250Z,101414.72
2018-06-24T20:02:48.172Z,101421.60
2018-06-24T20:05:18.064Z,101412.73
2018-06-24T20:07:49.858Z,101424.21
2018-06-24T20:10:19.281Z,101431.62
2018-06-24T20:12:49.056Z,101433.42
2018-06-24T20:18:31.994Z,101429.05
2018-06-24T20:21:01.619Z,101434.13
2018-06-24T20:23:31.234Z,101437.89
2018-06-24T20:26:00.870Z,101433.18
2018-06-24T20:28:30.493Z,101425.78
2018-06-24T20:31:00.604Z,101425.92
2018-06-24T20:33:30.228Z,101424.84
2018-06-24T20:35:59.889Z,101431.39
2018-06-24T20:38:48.043Z,101440.03
2018-06-24T20:41:18.062Z,101432.95
2018-06-24T20:43:47.937Z,101438.33
2018-06-24T20:46:17.561Z,101430.70
2018-06-24T20:48:47.230Z,101435.20
2018-06-24T20:51:16.898Z,101423.84
2018-06-24T20:53:46.562Z,101428.58
2018-06-24T20:56:16.307Z,101441.52
2018-06-24T20:58:45.909Z,101433.50
2018-06-24T21:01:15.558Z,101435.33
2018-06-24T21:03:45.778Z,101444.85
2018-06-24T21:06:17.745Z,101449.15
2018-06-24T21:08:47.734Z,101453.11
2018-06-24T21:11:17.410Z,101454.40
2018-06-24T21:13:47.167Z,101449.95
2018-06-24T21:16:18.990Z,101449.22
2018-06-24T21:18:48.643Z,101445.38
2018-06-24T21:21:18.749Z,101451.16
2018-06-24T21:23:48.694Z,101446.59
2018-06-24T21:26:18.393Z,101450.23
2018-06-24T21:28:48.003Z,101456.94
2018-06-24T21:31:17.987Z,101470.45
2018-06-24T21:33:47.306Z,101460.39
2018-06-24T21:36:17.003Z,101448.28
2018-06-24T21:38:46.590Z,101440.26
2018-06-24T21:41:16.205Z,101437.58
2018-06-24T21:43:45.846Z,101453.55
2018-06-24T21:46:15.469Z,101449.70
2018-06-24T21:48:45.140Z,101454.22
2018-06-24T21:51:14.834Z,101449.39
2018-06-24T21:53:44.935Z,101455.33
2018-06-24T21:56:15.695Z,101450.77
2018-06-24T21:58:45.462Z,101448.55
2018-06-24T22:01:18.893Z,101452.70
2018-06-24T22:10:03.386Z,101451.40
2018-06-24T22:12:33.336Z,101445.64
2018-06-24T22:15:03.246Z,101443.72
2018-06-24T22:17:33.262Z,101445.20
2018-06-24T22:20:03.078Z,101449.63
2018-06-24T22:22:33.001Z,101458.13
2018-06-24T22:25:03.006Z,101445.34
2018-06-24T22:27:32.742Z,101446.40
2018-06-24T22:30:02.385Z,101441.56
2018-06-24T22:32:32.015Z,101442.00
2018-06-24T22:35:01.670Z,101438.85
2018-06-24T22:37:31.350Z,101445.25
2018-06-24T22:40:00.967Z,101439.63
2018-06-24T22:42:30.857Z,101439.70
2018-06-24T22:45:00.639Z,101445.00
2018-06-24T22:47:30.453Z,101449.92
2018-06-24T22:50:00.362Z,101454.02
2018-06-24T22:52:30.266Z,101451.56
2018-06-24T22:55:00.064Z,101459.23
2018-06-24T22:57:29.830Z,101452.38
2018-06-24T23:00:15.129Z,101453.94
2018-06-24T23:02:45.610Z,101456.52
2018-06-24T23:05:15.663Z,101455.17
2018-06-24T23:07:46.387Z,101457.79
2018-06-24T23:10:16.365Z,101448.83
2018-06-24T23:12:46.242Z,101447.63
2018-06-24T23:15:16.150Z,101443.87
2018-06-24T23:17:45.978Z,101450.03
2018-06-24T23:20:15.617Z,101458.72
2018-06-24T23:22:45.447Z,101455.47
2018-06-24T23:25:15.204Z,101466.72
2018-06-24T23:27:44.974Z,101462.61
2018-06-24T23:30:14.790Z,101462.23
2018-06-24T23:32:44.865Z,101457.07
2018-06-24T23:35:14.702Z,101449.20
2018-06-24T23:37:44.598Z,101450.34
2018-06-24T23:40:14.386Z,101453.52
2018-06-24T23:42:44.196Z,101448.19
2018-06-24T23:45:14.189Z,101448.88
2018-06-24T23:47:44.019Z,101440.66
2018-06-24T23:50:13.953Z,101444.76
2018-06-24T23:52:43.682Z,101438.03
2018-06-24T23:55:13.483Z,101433.55
2018-06-24T23:57:43.134Z,101432.58
